Time;durP1;ratioP1;P1;durP2;ratioP2;P2;SDS_P1;SDS_P2;PMS_P1;PMS_P2;Temp;Humidity;BMP_temperature;BMP_pressure;BME280_temperature;BME280_humidity;BME280_pressure;Samples;Min_cycle;Max_cycle;Signal;HPM_P1;HPM_P2
2023/09/10 00:01:15;;;;;;;3.00;2.70;;;;;;;24.93;43.68;95462.91;6063015;28;108867;-69
2023/09/10 00:04:18;;;;;;;2.83;2.53;;;;;;;24.92;43.43;95464.78;6062943;28;108796;-69
2023/09/10 00:07:22;;;;;;;2.85;2.63;;;;;;;24.92;43.63;95470.13;6057084;28;108833;-63
2023/09/10 00:10:26;;;;;;;3.00;2.60;;;;;;;24.91;43.61;95470.47;6058533;28;108925;-69
2023/09/10 00:13:29;;;;;;;2.55;2.35;;;;;;;24.90;43.86;95468.88;6062124;28;108676;-69
2023/09/10 00:16:32;;;;;;;3.90;2.70;;;;;;;24.89;43.90;95467.31;6062777;28;109027;-69
2023/09/10 00:19:36;;;;;;;3.00;2.70;;;;;;;24.90;43.60;95469.66;6051132;28;109100;-69
2023/09/10 00:22:43;;;;;;;2.60;2.40;;;;;;;24.89;43.76;95476.13;6062186;28;108862;-69
2023/09/10 00:25:48;;;;;;;2.90;2.60;;;;;;;24.89;43.78;95469.97;6062416;28;109179;-69
2023/09/10 00:28:51;;;;;;;2.60;2.40;;;;;;;24.87;43.83;95472.97;6062353;28;108567;-69
2023/09/10 00:31:54;;;;;;;2.70;2.40;;;;;;;24.88;43.83;95471.88;6051495;28;109317;-69
2023/09/10 00:34:58;;;;;;;2.70;2.50;;;;;;;24.87;43.69;95464.94;6062320;28;108726;-69
2023/09/10 00:38:01;;;;;;;3.05;2.45;;;;;;;24.86;43.90;95473.25;6061840;28;108650;-68
2023/09/10 00:41:07;;;;;;;2.60;2.40;;;;;;;24.85;43.45;95466.34;6057512;28;108601;-68
2023/09/10 00:44:11;;;;;;;2.90;2.60;;;;;;;24.87;43.96;95469.50;6057070;28;109847;-68
2023/09/10 00:47:14;;;;;;;2.50;2.30;;;;;;;24.85;43.47;95477.84;6062404;28;109150;-69
2023/09/10 00:50:18;;;;;;;3.10;2.80;;;;;;;24.85;43.55;95469.81;6062954;28;108731;-68
2023/09/10 00:53:22;;;;;;;3.13;2.65;;;;;;;24.85;43.38;95471.69;6052757;28;109283;-61
2023/09/10 00:56:27;;;;;;;2.97;2.67;;;;;;;24.85;43.68;95461.78;6061882;28;108604;-60
2023/09/10 00:59:31;;;;;;;2.78;2.58;;;;;;;24.84;43.42;95476.25;6061828;28;108708;-60
2023/09/10 01:02:35;;;;;;;2.88;2.60;;;;;;;24.84;43.72;95465.53;6061967;28;108615;-60
2023/09/10 01:05:38;;;;;;;2.70;2.50;;;;;;;24.83;43.60;95463.19;6051311;28;108761;-60
2023/09/10 01:08:41;;;;;;;2.60;2.40;;;;;;;24.84;43.58;95464.75;6061576;28;109063;-61
2023/09/10 01:11:54;;;;;;;2.58;2.38;;;;;;;24.81;43.40;95458.16;6062104;28;108551;-60
2023/09/10 01:15:06;;;;;;;2.70;2.50;;;;;;;24.81;43.37;95457.34;6060424;28;109107;-63
2023/09/10 01:18:16;;;;;;;2.67;2.47;;;;;;;24.81;43.38;95457.34;6055966;28;108726;-61
2023/09/10 01:21:41;;;;;;;2.83;2.60;;;;;;;24.80;43.40;95453.91;6061429;28;108938;-60
2023/09/10 01:24:49;;;;;;;2.90;2.60;;;;;;;24.78;43.38;95443.50;6061195;28;108566;-60
2023/09/10 01:27:53;;;;;;;2.58;2.38;;;;;;;24.78;43.73;95437.38;6050017;28;108633;-60
2023/09/10 01:30:56;;;;;;;2.70;2.50;;;;;;;24.79;43.39;95449.66;6061168;28;108830;-59
2023/09/10 01:34:02;;;;;;;2.40;2.20;;;;;;;24.77;43.47;95443.81;6061357;28;108600;-60
2023/09/10 01:37:11;;;;;;;2.50;2.30;;;;;;;24.76;43.69;95447.59;6061376;28;109047;-61
2023/09/10 01:40:22;;;;;;;2.38;2.17;;;;;;;24.77;43.45;95441.94;6049652;28;108751;-61
2023/09/10 01:43:26;;;;;;;2.60;2.20;;;;;;;24.76;43.20;95455.63;6060734;28;108638;-60
2023/09/10 01:46:30;;;;;;;2.58;2.38;;;;;;;24.76;43.27;95460.97;6060101;28;108901;-60
2023/09/10 01:49:34;;;;;;;2.50;2.30;;;;;;;24.76;43.47;95463.66;6055472;28;108837;-60
2023/09/10 01:52:37;;;;;;;2.65;2.45;;;;;;;24.75;43.52;95478.94;6055508;28;109093;-60
2023/09/10 01:55:41;;;;;;;2.50;2.10;;;;;;;24.74;43.73;95465.88;6061080;28;108607;-60
2023/09/10 01:58:45;;;;;;;2.50;2.30;;;;;;;24.74;43.48;95471.22;6060223;28;108649;-62
2023/09/10 02:01:48;;;;;;;2.47;2.23;;;;;;;24.74;43.42;95471.22;6050390;28;108972;-62
2023/09/10 02:04:51;;;;;;;2.47;2.28;;;;;;;24.73;43.59;95475.00;6061066;28;108931;-70
2023/09/10 02:07:54;;;;;;;2.50;2.30;;;;;;;24.73;43.57;95477.66;6061384;28;108869;-69
2023/09/10 02:10:59;;;;;;;2.50;2.30;;;;;;;24.73;43.64;95485.69;6060639;28;108739;-69
2023/09/10 02:14:02;;;;;;;2.70;2.30;;;;;;;24.71;43.41;95482.56;6050304;28;109602;-70
2023/09/10 02:17:07;;;;;;;2.30;2.10;;;;;;;24.70;43.50;95480.97;6061008;28;108606;-70
2023/09/10 02:20:12;;;;;;;2.60;2.40;;;;;;;24.70;43.52;95486.31;6061005;28;108922;-69
2023/09/10 02:23:15;;;;;;;2.90;2.40;;;;;;;24.71;43.55;95488.69;6061087;28;109124;-64
2023/09/10 02:26:20;;;;;;;2.50;2.30;;;;;;;24.70;43.54;95491.69;6058867;28;109009;-69
2023/09/10 02:29:23;;;;;;;2.45;2.20;;;;;;;24.69;43.48;95496.22;6064108;28;108935;-69
2023/09/10 02:32:26;;;;;;;2.58;2.38;;;;;;;24.69;43.62;95490.88;6064916;28;108839;-69
2023/09/10 02:35:29;;;;;;;2.33;2.03;;;;;;;24.68;43.40;95496.53;6054071;28;109411;-69
2023/09/10 02:38:33;;;;;;;2.80;2.60;;;;;;;24.67;43.46;95489.56;6063757;28;109093;-69
2023/09/10 02:41:37;;;;;;;2.60;2.40;;;;;;;24.68;43.52;95497.31;6064238;28;108577;-70
2023/09/10 02:44:40;;;;;;;2.97;2.55;;;;;;;24.68;43.37;95491.19;6064356;28;109042;-69
2023/09/10 02:47:44;;;;;;;2.55;2.35;;;;;;;24.67;43.62;95489.56;6053603;28;110350;-69
2023/09/10 02:50:47;;;;;;;2.40;2.20;;;;;;;24.67;43.64;95486.91;6064718;28;109256;-69
2023/09/10 02:53:50;;;;;;;2.50;2.30;;;;;;;24.66;43.48;95482.66;6064344;28;108654;-69
2023/09/10 02:56:54;;;;;;;2.70;2.50;;;;;;;24.68;43.41;95483.16;6063893;28;108929;-70
2023/09/10 02:59:58;;;;;;;2.65;2.45;;;;;;;24.66;43.56;95485.31;6053332;28;109139;-70
2023/09/10 03:03:01;;;;;;;2.80;2.50;;;;;;;24.64;43.38;95479.50;6063966;28;109067;-70
2023/09/10 03:06:11;;;;;;;2.60;2.40;;;;;;;24.64;43.33;95482.16;6063518;28;108911;-70
2023/09/10 03:09:15;;;;;;;2.63;2.30;;;;;;;24.62;43.41;95479.81;6058127;28;109182;-67
2023/09/10 03:12:25;;;;;;;2.30;2.10;;;;;;;24.63;43.32;95483.28;6060615;28;109028;-69
2023/09/10 03:15:28;;;;;;;2.58;2.38;;;;;;;24.62;43.66;95479.81;6063384;28;109061;-64
2023/09/10 03:18:31;;;;;;;2.50;2.30;;;;;;;24.63;43.59;95485.94;6063548;28;108778;-65
2023/09/10 03:21:36;;;;;;;2.60;2.40;;;;;;;24.61;43.24;95482.78;6052544;28;108769;-64
2023/09/10 03:24:40;;;;;;;2.60;2.40;;;;;;;24.64;43.43;95485.63;6063064;28;109117;-64
2023/09/10 03:27:44;;;;;;;2.67;2.47;;;;;;;24.64;43.55;95487.53;6063227;28;108985;-65
2023/09/10 03:30:47;;;;;;;2.50;2.17;;;;;;;24.60;43.41;95479.34;6063014;28;108580;-64
2023/09/10 03:33:50;;;;;;;2.70;2.50;;;;;;;24.61;43.45;95490.81;6051448;28;108764;-65
2023/09/10 03:36:53;;;;;;;2.50;2.30;;;;;;;24.60;43.56;95491.94;6039664;28;108767;-64
2023/09/10 03:39:56;;;;;;;2.70;2.50;;;;;;;24.59;43.40;95496.50;6053000;28;108691;-64
2023/09/10 03:43:01;;;;;;;2.80;2.30;;;;;;;24.60;43.30;95502.63;6058482;28;108770;-64
2023/09/10 03:46:04;;;;;;;2.60;2.40;;;;;;;24.59;43.43;95506.41;6056038;28;108804;-63
2023/09/10 03:49:07;;;;;;;2.90;2.30;;;;;;;24.58;43.67;95504.84;6062841;28;108609;-64
2023/09/10 03:52:16;;;;;;;2.60;2.28;;;;;;;24.57;43.59;95503.25;6062943;28;108963;-63
2023/09/10 03:55:20;;;;;;;2.50;2.30;;;;;;;24.57;43.44;95504.03;6051939;28;109534;-64
2023/09/10 03:58:24;;;;;;;2.65;2.45;;;;;;;24.56;43.46;95507.03;6062626;28;109178;-64
2023/09/10 04:01:28;;;;;;;2.60;2.40;;;;;;;24.57;43.37;95505.94;6062246;28;108866;-64
2023/09/10 04:04:31;;;;;;;2.55;2.35;;;;;;;24.57;43.40;95503.25;6062486;28;108842;-64
2023/09/10 04:07:35;;;;;;;2.53;2.20;;;;;;;24.57;43.33;95509.41;6052018;28;109439;-64
2023/09/10 04:10:38;;;;;;;2.30;2.10;;;;;;;24.56;43.67;95512.38;6061889;28;108814;-64
2023/09/10 04:13:42;;;;;;;2.75;2.47;;;;;;;24.55;43.60;95516.94;6062500;28;108678;-63
2023/09/10 04:16:46;;;;;;;2.30;2.10;;;;;;;24.55;43.43;95518.84;6061979;28;108659;-64
2023/09/10 04:19:49;;;;;;;2.60;2.40;;;;;;;24.55;43.41;95516.94;6052847;28;109167;-64
2023/09/10 04:22:52;;;;;;;2.80;2.60;;;;;;;24.53;43.24;95521.00;6062229;28;108706;-64
2023/09/10 04:25:55;;;;;;;2.50;2.30;;;;;;;24.54;43.50;95520.72;6061976;28;108619;-65
2023/09/10 04:29:00;;;;;;;2.60;2.20;;;;;;;24.52;43.14;95519.44;6052724;28;108752;-64
2023/09/10 04:32:03;;;;;;;2.95;2.40;;;;;;;24.51;43.61;95521.31;6061301;28;108721;-67
2023/09/10 04:35:07;;;;;;;2.47;2.08;;;;;;;24.50;43.42;95520.53;6061849;28;108761;-64
2023/09/10 04:38:11;;;;;;;2.80;2.50;;;;;;;24.50;43.63;95517.06;6062173;28;108712;-65
2023/09/10 04:41:14;;;;;;;3.63;2.40;;;;;;;24.49;43.12;95518.94;6051510;28;109526;-65
2023/09/10 04:44:19;;;;;;;2.30;2.10;;;;;;;24.49;43.56;95521.63;6061612;28;108894;-65
2023/09/10 04:47:22;;;;;;;2.20;1.90;;;;;;;24.49;43.45;95520.84;6037972;28;108594;-65
2023/09/10 04:50:25;;;;;;;2.50;2.17;;;;;;;24.50;43.45;95527.78;6046618;28;108628;-64
2023/09/10 04:53:28;;;;;;;2.30;2.00;;;;;;;24.47;43.23;95529.19;6051812;28;112618;-65
2023/09/10 04:56:31;;;;;;;2.60;2.40;;;;;;;24.47;42.87;95525.72;6061487;28;108703;-64
2023/09/10 04:59:36;;;;;;;2.50;2.30;;;;;;;24.48;43.17;95525.41;6061413;28;108605;-64
2023/09/10 05:02:39;;;;;;;2.50;2.30;;;;;;;24.48;43.39;95525.41;6056101;28;108834;-64
2023/09/10 05:05:42;;;;;;;2.40;2.20;;;;;;;24.47;43.34;95526.50;6056089;28;108738;-64
2023/09/10 05:08:45;;;;;;;2.10;1.90;;;;;;;24.49;43.34;95524.31;6061272;28;108832;-64
2023/09/10 05:11:48;;;;;;;2.20;1.90;;;;;;;24.48;43.37;95528.09;6061341;28;108615;-64
2023/09/10 05:14:53;;;;;;;2.90;2.30;;;;;;;24.49;43.14;95537.69;6051138;28;108944;-64
2023/09/10 05:17:56;;;;;;;2.65;1.90;;;;;;;24.49;43.37;95537.69;6061009;28;108570;-64
2023/09/10 05:20:59;;;;;;;2.40;2.20;;;;;;;24.50;43.45;95535.78;6060857;28;108948;-64
2023/09/10 05:24:02;;;;;;;2.30;2.10;;;;;;;24.50;43.46;95535.78;6061492;28;108686;-64
2023/09/10 05:27:05;;;;;;;2.30;2.10;;;;;;;24.49;43.31;95545.72;6050315;28;109122;-65
2023/09/10 05:30:10;;;;;;;2.40;2.10;;;;;;;24.49;43.08;95540.34;6061027;28;108725;-64
2023/09/10 05:33:13;;;;;;;2.20;2.00;;;;;;;24.48;43.73;95544.13;6061521;28;108965;-64
2023/09/10 05:36:17;;;;;;;2.40;2.20;;;;;;;24.49;43.40;95545.72;6060965;28;108602;-68
2023/09/10 05:39:22;;;;;;;2.50;2.30;;;;;;;24.49;43.14;95548.38;6051362;28;108954;-59
2023/09/10 05:42:25;;;;;;;2.40;2.20;;;;;;;24.51;43.23;95545.41;6060629;28;108615;-60
2023/09/10 05:45:30;;;;;;;2.30;2.08;;;;;;;24.56;43.42;95547.97;6060249;28;108817;-60
2023/09/10 05:48:33;;;;;;;2.45;2.08;;;;;;;24.64;43.12;95546.41;6050708;28;111752;-65
2023/09/10 05:51:36;;;;;;;2.70;2.13;;;;;;;24.72;43.00;95543.00;6059751;28;108862;-60
2023/09/10 05:54:39;;;;;;;2.20;2.00;;;;;;;24.84;42.87;95545.06;6061226;28;108584;-62
2023/09/10 05:57:42;;;;;;;4.00;1.85;;;;;;;24.91;42.73;95540.84;6063830;28;108701;-60
2023/09/10 06:00:47;;;;;;;4.10;2.30;;;;;;;25.02;42.69;95549.38;6054011;28;108872;-60
2023/09/10 06:03:50;;;;;;;2.27;2.07;;;;;;;25.08;42.32;95556.97;6064697;28;108613;-59
2023/09/10 06:06:53;;;;;;;2.27;1.90;;;;;;;25.20;42.40;95555.53;6064773;28;108600;-60
2023/09/10 06:09:56;;;;;;;2.20;2.00;;;;;;;25.29;42.22;95556.34;6064457;28;108575;-60
2023/09/10 06:12:59;;;;;;;2.40;2.15;;;;;;;25.37;41.81;95548.38;6054723;28;108975;-60
2023/09/10 06:16:04;;;;;;;2.20;1.92;;;;;;;25.45;41.67;95552.16;6064559;28;108770;-59
2023/09/10 06:19:07;;;;;;;2.20;2.00;;;;;;;25.55;41.72;95549.16;6064173;28;108930;-60
2023/09/10 06:22:10;;;;;;;2.40;2.10;;;;;;;25.62;41.84;95548.69;6058744;28;108773;-60
2023/09/10 06:25:14;;;;;;;2.10;1.65;;;;;;;25.68;41.25;95555.44;6059228;28;109008;-60
2023/09/10 06:28:18;;;;;;;2.67;1.70;;;;;;;25.75;41.11;95555.00;6064075;28;109023;-60
2023/09/10 06:31:22;;;;;;;2.40;2.00;;;;;;;25.80;40.80;95560.19;6064125;28;108955;-61
2023/09/10 06:34:25;;;;;;;2.00;1.80;;;;;;;25.87;41.12;95555.91;6053407;28;108575;-62
2023/09/10 06:37:29;;;;;;;1.93;1.70;;;;;;;25.91;40.84;95559.53;6063631;28;108939;-63
2023/09/10 06:40:36;;;;;;;1.90;1.70;;;;;;;25.96;40.72;95554.00;6064081;28;108992;-62
2023/09/10 06:43:39;;;;;;;2.00;1.80;;;;;;;26.03;40.71;95547.41;6063839;28;108571;-62
2023/09/10 06:46:43;;;;;;;1.90;1.70;;;;;;;26.07;40.58;95551.03;6052726;28;109060;-64
2023/09/10 06:49:47;;;;;;;1.90;1.70;;;;;;;26.10;41.07;95545.81;6064038;28;108669;-64
2023/09/10 06:52:50;;;;;;;2.30;2.00;;;;;;;26.17;40.27;95550.69;6063471;28;108702;-63
2023/09/10 06:55:53;;;;;;;2.00;1.80;;;;;;;26.20;40.54;95550.81;6063004;28;109114;-63
2023/09/10 06:58:56;;;;;;;2.00;1.80;;;;;;;26.24;39.96;95554.47;6055938;28;108846;-63
2023/09/10 07:02:00;;;;;;;2.10;1.90;;;;;;;26.26;40.49;95549.56;6063508;28;108800;-64
2023/09/10 07:05:04;;;;;;;1.70;1.60;;;;;;;26.33;40.03;95556.31;6063324;28;108807;-64
2023/09/10 07:08:08;;;;;;;1.90;1.70;;;;;;;26.35;40.43;95562.16;6053416;28;108929;-64
2023/09/10 07:11:11;;;;;;;2.30;1.70;;;;;;;26.36;39.88;95553.00;6063028;28;108726;-63
2023/09/10 07:14:15;;;;;;;2.60;1.80;;;;;;;26.41;40.33;95558.22;6063552;28;109082;-62
2023/09/10 07:17:19;;;;;;;2.33;1.70;;;;;;;26.41;39.89;95556.31;6063608;28;108698;-63
2023/09/10 07:20:22;;;;;;;2.22;1.75;;;;;;;26.44;40.38;95558.34;6053119;28;109013;-61
2023/09/10 07:23:25;;;;;;;1.90;1.70;;;;;;;26.49;40.28;95560.06;6040004;28;108654;-62
2023/09/10 07:26:28;;;;;;;2.70;1.70;;;;;;;26.51;40.32;95549.78;6048186;28;108880;-63
2023/09/10 07:29:31;;;;;;;2.20;1.80;;;;;;;26.53;39.85;95552.94;6062773;28;108952;-63
2023/09/10 07:32:36;;;;;;;2.00;1.80;;;;;;;26.55;39.68;95550.75;6051895;28;108810;-62
2023/09/10 07:35:39;;;;;;;2.40;1.90;;;;;;;26.58;39.76;95547.41;6062774;28;108633;-63
2023/09/10 07:38:42;;;;;;;2.00;1.70;;;;;;;26.61;40.07;95557.50;6063182;28;108887;-63
2023/09/10 07:41:45;;;;;;;2.20;1.80;;;;;;;26.61;40.18;95549.44;6058068;28;108765;-64
2023/09/10 07:44:48;;;;;;;2.10;1.90;;;;;;;26.63;39.60;95546.44;6057528;28;108782;-63
2023/09/10 07:47:53;;;;;;;2.15;1.80;;;;;;;26.65;39.47;95541.56;6062272;28;109254;-63
2023/09/10 07:50:57;;;;;;;2.17;1.80;;;;;;;26.66;39.64;95538.53;6062792;28;108675;-62
2023/09/10 07:54:00;;;;;;;1.90;1.70;;;;;;;26.68;39.83;95543.59;6052296;28;109956;-62
2023/09/10 07:57:04;;;;;;;1.83;1.63;;;;;;;26.68;39.48;95533.63;6063140;28;108718;-60
2023/09/10 08:00:08;;;;;;;2.03;1.83;;;;;;;26.73;39.26;95536.16;6062678;28;108810;-59
2023/09/10 08:03:15;;;;;;;2.30;2.00;;;;;;;26.71;39.94;95529.50;6062608;28;108941;-60
2023/09/10 08:06:21;;;;;;;2.40;2.10;;;;;;;26.73;39.82;95525.41;6051417;28;109261;-60
2023/09/10 08:09:24;;;;;;;2.00;1.80;;;;;;;26.74;39.57;95532.38;6062096;28;109336;-59
2023/09/10 08:12:28;;;;;;;2.20;2.00;;;;;;;26.78;39.53;95529.81;6062263;28;108847;-60
2023/09/10 08:15:31;;;;;;;1.97;1.73;;;;;;;26.77;39.59;95533.63;6059948;28;109076;-61
2023/09/10 08:18:35;;;;;;;2.13;1.90;;;;;;;26.79;39.32;95534.06;6053917;28;108838;-60
2023/09/10 08:21:39;;;;;;;2.10;1.90;;;;;;;26.80;39.35;95531.06;6062347;28;108957;-60
2023/09/10 08:24:42;;;;;;;1.90;1.70;;;;;;;26.80;39.83;95525.69;6062461;28;108622;-61
2023/09/10 08:27:45;;;;;;;2.10;1.90;;;;;;;26.82;39.96;95525.34;6051462;28;108650;-62
2023/09/10 08:30:48;;;;;;;2.30;2.05;;;;;;;26.84;39.16;95520.44;6061470;28;108899;-61
2023/09/10 08:33:53;;;;;;;2.30;2.00;;;;;;;26.84;39.84;95528.50;6061782;28;108691;-60
2023/09/10 08:36:56;;;;;;;2.20;2.00;;;;;;;26.85;39.60;95517.44;6061712;28;108666;-60
2023/09/10 08:39:59;;;;;;;2.40;1.90;;;;;;;26.86;39.47;95515.53;6051271;28;108817;-60
2023/09/10 08:43:10;;;;;;;2.30;2.10;;;;;;;26.85;39.34;95514.75;6061882;28;108719;-60
2023/09/10 08:46:15;;;;;;;2.00;1.80;;;;;;;26.86;39.69;95516.31;6061087;28;108969;-60
2023/09/10 08:49:21;;;;;;;2.30;2.00;;;;;;;26.87;39.73;95507.16;6061771;28;108861;-60
2023/09/10 08:52:25;;;;;;;2.17;1.90;;;;;;;26.84;39.73;95517.75;6051359;28;109174;-60
2023/09/10 08:55:29;;;;;;;2.10;1.90;;;;;;;26.87;39.25;95514.41;6061851;28;108682;-61
2023/09/10 08:58:33;;;;;;;2.65;1.90;;;;;;;26.87;40.00;95509.06;6061791;28;109052;-59
2023/09/10 09:01:36;;;;;;;1.98;1.65;;;;;;;26.87;39.78;95517.09;6050877;28;108876;-61
2023/09/10 09:04:41;;;;;;;2.03;1.83;;;;;;;26.87;39.24;95504.47;6061277;28;109115;-60
2023/09/10 09:07:46;;;;;;;2.40;2.00;;;;;;;26.89;39.88;95503.38;6061145;28;108695;-60
2023/09/10 09:10:50;;;;;;;2.50;2.00;;;;;;;26.90;40.10;95504.97;6061291;28;108582;-60
2023/09/10 09:13:56;;;;;;;2.20;2.00;;;;;;;26.86;39.62;95500.22;6050708;28;108908;-60
2023/09/10 09:16:59;;;;;;;2.40;2.20;;;;;;;26.86;39.33;95502.91;6061554;28;108685;-61
2023/09/10 09:20:09;;;;;;;2.40;2.00;;;;;;;26.87;39.95;95499.09;6061162;28;108877;-60
2023/09/10 09:23:21;;;;;;;2.40;2.10;;;;;;;26.87;39.32;95501.00;6058675;28;108987;-61
2023/09/10 09:26:26;;;;;;;2.20;1.92;;;;;;;26.85;39.97;95501.31;6055857;28;109337;-60
2023/09/10 09:29:30;;;;;;;2.50;2.00;;;;;;;26.87;40.21;95496.41;6061657;28;108672;-61
2023/09/10 09:32:34;;;;;;;2.10;1.85;;;;;;;26.85;39.29;95487.09;6065399;28;108693;-61
2023/09/10 09:35:39;;;;;;;2.60;1.90;;;;;;;26.89;39.53;95492.63;6056226;28;109095;-61
2023/09/10 09:38:44;;;;;;;2.40;2.13;;;;;;;26.88;39.97;95494.50;6065078;28;108623;-61
2023/09/10 09:41:50;;;;;;;2.47;2.00;;;;;;;26.87;39.53;95487.56;6065027;28;108871;-60
2023/09/10 09:44:54;;;;;;;2.22;1.88;;;;;;;26.86;40.05;95486.78;6065260;28;109046;-60
2023/09/10 09:47:57;;;;;;;2.40;1.90;;;;;;;26.84;40.20;95480.94;6054412;28;108610;-60
2023/09/10 09:51:03;;;;;;;2.00;1.77;;;;;;;26.86;39.46;95478.72;6065363;28;108606;-60
2023/09/10 09:54:07;;;;;;;2.00;1.70;;;;;;;26.84;39.55;95483.63;6065217;28;108923;-60
2023/09/10 09:57:11;;;;;;;2.20;2.00;;;;;;;26.83;39.87;95484.75;6065251;28;108888;-60
2023/09/10 10:00:16;;;;;;;2.40;2.20;;;;;;;26.85;39.31;95479.84;6054879;28;108895;-61
2023/09/10 10:03:25;;;;;;;3.75;3.25;;;;;;;26.75;38.44;95466.81;6059691;28;108873;-65
2023/09/10 10:06:29;;;;;;;6.27;4.00;;;;;;;26.74;35.25;95459.88;6064364;28;108625;-64
2023/09/10 10:09:43;;;;;;;9.25;4.85;;;;;;;26.78;35.54;95460.00;6044566;28;109921;-63
2023/09/10 10:12:47;;;;;;;8.57;4.30;;;;;;;26.76;35.88;95456.84;6057863;28;109250;-64
2023/09/10 10:15:52;;;;;;;13.98;4.95;;;;;;;26.42;36.48;95453.22;6055141;28;108788;-64
2023/09/10 10:18:56;;;;;;;7.60;5.30;;;;;;;26.20;36.43;95440.81;6063408;28;108900;-67
2023/09/10 10:22:04;;;;;;;6.97;5.15;;;;;;;26.39;35.27;95450.41;6053302;28;108741;-67
2023/09/10 10:25:09;;;;;;;6.82;4.78;;;;;;;26.42;34.33;95447.84;6060958;28;108945;-68
2023/09/10 10:28:12;;;;;;;5.43;4.45;;;;;;;26.49;32.91;95442.75;6069248;28;108839;-66
2023/09/10 10:31:17;;;;;;;6.20;4.13;;;;;;;26.64;33.08;95440.66;6068215;28;108908;-69
2023/09/10 10:34:24;;;;;;;5.63;4.40;;;;;;;26.49;33.01;95436.59;6051429;28;108997;-66
2023/09/10 10:37:35;;;;;;;6.32;4.25;;;;;;;26.38;33.11;95435.38;6061623;28;109278;-66
2023/09/10 10:40:42;;;;;;;6.80;5.05;;;;;;;26.22;33.91;95432.47;6062625;28;109498;-66
2023/09/10 10:43:54;;;;;;;6.90;5.50;;;;;;;26.10;34.78;95427.78;6052541;28;109536;-67
2023/09/10 10:47:00;;;;;;;9.55;5.88;;;;;;;25.92;35.54;95421.69;6063032;28;110214;-66
2023/09/10 10:50:08;;;;;;;9.13;6.50;;;;;;;25.79;36.67;95416.50;6063200;28;109376;-66
2023/09/10 10:53:19;;;;;;;6.28;5.68;;;;;;;25.77;36.54;95410.69;6063893;28;108735;-66
2023/09/10 10:56:22;;;;;;;7.35;6.38;;;;;;;25.81;36.23;95412.41;6052031;28;109339;-66
2023/09/10 10:59:26;;;;;;;7.78;6.70;;;;;;;25.96;36.63;95405.72;6062384;28;109087;-66
2023/09/10 11:02:29;;;;;;;7.80;7.00;;;;;;;25.98;35.50;95403.50;6062147;28;108717;-67
2023/09/10 11:06:05;;;;;;;6.90;6.20;;;;;;;26.08;35.43;95403.19;6056271;28;108898;-67
2023/09/10 11:12:37;;;;;;;7.60;6.80;;;;;;;25.93;35.67;95392.97;6356084;27;109133;-68
2023/09/10 11:16:15;;;;;;;8.60;7.40;;;;;;;25.77;35.75;95395.38;6356596;27;109074;-67
2023/09/10 11:19:51;;;;;;;20.00;7.50;;;;;;;25.81;35.55;95385.59;6339331;27;108821;-67
2023/09/10 11:23:09;;;;;;;18.25;7.20;;;;;;;25.84;36.09;95395.66;6264659;27;108744;-69
2023/09/10 11:26:31;;;;;;;15.63;7.60;;;;;;;25.78;36.40;95377.41;6254856;27;109408;-67
2023/09/10 11:29:36;;;;;;;11.68;6.75;;;;;;;25.61;35.93;95386.28;6346341;27;108989;-64
2023/09/10 11:32:39;;;;;;;9.20;6.10;;;;;;;25.59;34.79;95383.94;6343571;27;109648;-65
2023/09/10 11:35:53;;;;;;;10.27;6.75;;;;;;;25.83;35.68;95385.25;6354276;27;109043;-65
2023/09/10 11:38:56;;;;;;;7.95;6.32;;;;;;;25.78;36.00;95380.09;6355880;27;108967;-65
2023/09/10 11:42:01;;;;;;;6.75;5.57;;;;;;;25.64;35.61;95377.59;6344099;27;109636;-65
2023/09/10 11:45:07;;;;;;;6.72;5.90;;;;;;;25.52;35.35;95369.44;6355874;27;110475;-65
2023/09/10 11:48:10;;;;;;;6.30;5.70;;;;;;;25.66;35.83;95378.06;6343451;27;110204;-64
2023/09/10 11:51:13;;;;;;;9.15;6.00;;;;;;;25.58;35.71;95377.00;6345278;27;110060;-66
2023/09/10 11:54:17;;;;;;;6.88;5.88;;;;;;;25.56;35.14;95370.38;6342511;27;110460;-64
2023/09/10 11:57:21;;;;;;;7.43;5.55;;;;;;;25.90;35.43;95369.47;6341210;27;109386;-64
2023/09/10 12:00:25;;;;;;;6.32;5.55;;;;;;;26.08;35.50;95365.63;6332717;27;108871;-64
2023/09/10 12:07:45;;;;;;;7.05;5.40;;;;;;;26.24;35.96;95368.56;6337251;27;108840;-64
2023/09/10 12:10:48;;;;;;;7.07;5.40;;;;;;;26.27;36.53;95359.84;6348838;27;109082;-65
2023/09/10 12:13:52;;;;;;;7.43;6.03;;;;;;;26.19;36.79;95349.94;6336706;27;109123;-63
2023/09/10 12:16:57;;;;;;;8.50;6.60;;;;;;;26.01;36.12;95357.28;6351250;27;109023;-64
2023/09/10 12:20:00;;;;;;;7.63;6.65;;;;;;;25.94;36.17;95348.94;6348205;27;110006;-62
2023/09/10 12:23:05;;;;;;;6.60;6.00;;;;;;;25.95;35.86;95343.25;6328137;27;111100;-65
2023/09/10 12:26:08;;;;;;;7.65;5.90;;;;;;;25.76;36.35;95350.91;6315949;27;109132;-64
2023/09/10 12:29:13;;;;;;;9.38;5.95;;;;;;;25.74;36.06;95355.03;6324435;27;109574;-63
2023/09/10 12:32:18;;;;;;;7.13;6.20;;;;;;;25.77;35.70;95357.84;6312649;27;109044;-67
2023/09/10 12:35:22;;;;;;;9.27;6.50;;;;;;;25.77;36.11;95340.97;6334837;27;112772;-67
2023/09/10 12:38:25;;;;;;;10.13;7.00;;;;;;;25.74;36.55;95347.00;6326374;27;109091;-62
2023/09/10 12:41:28;;;;;;;7.78;6.50;;;;;;;25.68;36.05;95324.91;6339311;27;108931;-62
2023/09/10 12:44:36;;;;;;;6.70;5.50;;;;;;;25.80;35.58;95337.66;6331765;27;109459;-62
2023/09/10 12:47:42;;;;;;;8.85;6.00;;;;;;;25.81;35.65;95331.97;6302831;27;111918;-62
2023/09/10 12:50:46;;;;;;;6.00;5.40;;;;;;;25.77;36.46;95335.63;6316630;27;110345;-66
2023/09/10 12:53:50;;;;;;;6.70;5.18;;;;;;;25.79;36.29;95333.41;6318271;27;109373;-61
2023/09/10 12:56:53;;;;;;;6.82;5.60;;;;;;;25.81;36.82;95340.00;6310438;27;109655;-62
2023/09/10 12:59:56;;;;;;;7.05;5.70;;;;;;;25.85;37.54;95337.47;6300769;27;109976;-63
2023/09/10 13:03:01;;;;;;;7.47;5.57;;;;;;;25.88;37.31;95334.16;6313582;27;109420;-62
2023/09/10 13:06:04;;;;;;;6.10;5.50;;;;;;;25.82;37.32;95333.53;6323474;27;109326;-63
2023/09/10 13:09:07;;;;;;;7.90;5.80;;;;;;;25.79;36.93;95333.41;6318962;27;108799;-63
2023/09/10 13:12:10;;;;;;;7.30;6.60;;;;;;;25.78;37.04;95337.97;6309227;27;110425;-62
2023/09/10 13:15:15;;;;;;;9.57;7.20;;;;;;;25.81;36.74;95331.19;6319232;27;109084;-62
2023/09/10 13:18:19;;;;;;;10.95;7.32;;;;;;;25.88;36.23;95339.53;6319102;27;109735;-64
2023/09/10 13:21:23;;;;;;;9.27;7.18;;;;;;;25.90;36.43;95334.63;6320071;27;110390;-64
2023/09/10 13:24:26;;;;;;;8.85;7.00;;;;;;;25.93;36.05;95336.66;6315586;27;109336;-62
2023/09/10 13:27:29;;;;;;;7.80;6.75;;;;;;;25.91;36.44;95336.97;6319237;27;109238;-63
2023/09/10 13:30:32;;;;;;;9.68;7.05;;;;;;;25.93;36.73;95329.38;6322753;27;109113;-62
2023/09/10 13:33:37;;;;;;;9.20;7.40;;;;;;;25.89;36.10;95330.38;6301069;27;109003;-62
2023/09/10 13:36:40;;;;;;;8.95;6.85;;;;;;;25.86;35.80;95325.63;6316608;27;108797;-64
2023/09/10 13:39:43;;;;;;;9.90;6.75;;;;;;;25.86;36.48;95328.31;6319199;27;108861;-62
2023/09/10 13:42:48;;;;;;;7.13;5.90;;;;;;;25.81;35.81;95333.84;6328822;27;108818;-62
2023/09/10 13:45:51;;;;;;;6.53;5.93;;;;;;;25.79;36.46;95320.00;6305528;27;109214;-62
2023/09/10 13:48:56;;;;;;;7.30;6.23;;;;;;;25.85;36.40;95321.38;6323586;27;109290;-66
2023/09/10 13:51:59;;;;;;;9.43;7.60;;;;;;;25.87;36.33;95319.94;6312474;27;110027;-68
2023/09/10 13:55:02;;;;;;;8.00;7.07;;;;;;;25.85;36.78;95327.53;6319920;27;113208;-66
2023/09/10 13:58:05;;;;;;;7.80;6.70;;;;;;;25.82;36.73;95317.44;6319385;27;110262;-66
2023/09/10 14:01:09;;;;;;;8.60;7.47;;;;;;;25.77;36.51;95323.00;6332510;27;109269;-68
2023/09/10 14:04:14;;;;;;;7.97;7.27;;;;;;;25.71;36.78;95326.16;6337262;27;108956;-67
2023/09/10 14:07:17;;;;;;;19.98;7.68;;;;;;;25.67;36.57;95316.09;6314458;27;110337;-66
2023/09/10 14:10:20;;;;;;;15.10;8.77;;;;;;;25.69;36.12;95316.56;6329658;27;109028;-68
2023/09/10 14:13:24;;;;;;;14.75;8.80;;;;;;;25.77;36.14;95323.00;6314112;27;108993;-67
2023/09/10 14:16:27;;;;;;;13.98;7.80;;;;;;;25.72;36.42;95320.50;6320600;27;108947;-67
2023/09/10 14:19:31;;;;;;;10.57;7.15;;;;;;;25.77;35.61;95311.50;6305419;27;109052;-68
2023/09/10 14:22:34;;;;;;;10.65;6.85;;;;;;;25.91;35.55;95309.38;6321471;27;108974;-68
2023/09/10 14:25:38;;;;;;;7.60;6.07;;;;;;;25.98;35.00;95309.63;6329971;27;109009;-69